Time;durP1;ratioP1;P1;durP2;ratioP2;P2;SDS_P1;SDS_P2;PMS_P1;PMS_P2;Temp;Humidity;BMP_temperature;BMP_pressure;BME280_temperature;BME280_humidity;BME280_pressure;Samples;Min_cycle;Max_cycle;Signal;HPM_P1;HPM_P2
2021/04/18 00:01:31;;;;;;;;;30.75;29.75;;;;;;;;3724241;37;17911;-57
2021/04/18 00:03:57;;;;;;;;;25.50;25.50;;;;;;;;3724325;37;17945;-58
2021/04/18 00:06:23;;;;;;;;;27.75;25.75;;;;;;;;3724853;38;17914;-58
2021/04/18 00:08:50;;;;;;;;;30.25;28.75;;;;;;;;3724797;37;17993;-57
2021/04/18 00:11:16;;;;;;;;;28.00;27.00;;;;;;;;3724878;38;17921;-58
2021/04/18 00:13:42;;;;;;;;;21.75;19.25;;;;;;;;3724647;37;21023;-58
2021/04/18 00:16:08;;;;;;;;;27.00;25.75;;;;;;;;3724789;37;21008;-56
2021/04/18 00:18:33;;;;;;;;;30.50;30.50;;;;;;;;3724993;37;17905;-57
2021/04/18 00:21:00;;;;;;;;;33.75;28.75;;;;;;;;3724835;38;17879;-56
2021/04/18 00:23:26;;;;;;;;;27.00;27.00;;;;;;;;3724863;38;21052;-57
2021/04/18 00:25:52;;;;;;;;;31.00;30.25;;;;;;;;3724673;37;20991;-56
2021/04/18 00:28:18;;;;;;;;;30.50;28.75;;;;;;;;3724776;38;17882;-57
2021/04/18 00:30:44;;;;;;;;;32.50;28.25;;;;;;;;3724776;37;17887;-57
2021/04/18 00:33:10;;;;;;;;;29.00;27.25;;;;;;;;3724860;37;17896;-57
2021/04/18 00:35:36;;;;;;;;;28.00;27.50;;;;;;;;3724797;37;17887;-57
2021/04/18 00:38:01;;;;;;;;;32.00;31.75;;;;;;;;3724844;38;17887;-57
2021/04/18 00:40:27;;;;;;;;;30.00;28.25;;;;;;;;3724806;38;17878;-56
2021/04/18 00:42:54;;;;;;;;;25.50;24.75;;;;;;;;3724708;38;17877;-57
2021/04/18 00:45:21;;;;;;;;;33.50;29.00;;;;;;;;3724752;37;20952;-57
2021/04/18 00:47:49;;;;;;;;;29.50;28.75;;;;;;;;3724640;37;20758;-56
2021/04/18 00:50:22;;;;;;;;;31.75;30.00;;;;;;;;3724357;37;20951;-56
2021/04/18 00:52:48;;;;;;;;;29.75;29.50;;;;;;;;3724292;38;20977;-56
2021/04/18 00:55:16;;;;;;;;;30.00;29.25;;;;;;;;3724735;37;20963;-59
2021/04/18 00:57:45;;;;;;;;;23.00;22.25;;;;;;;;3724710;37;17839;-64
2021/04/18 01:00:11;;;;;;;;;27.25;25.50;;;;;;;;3724719;37;20942;-57
2021/04/18 01:02:38;;;;;;;;;30.00;29.00;;;;;;;;3724757;37;20947;-59
2021/04/18 01:05:05;;;;;;;;;30.50;30.50;;;;;;;;3724845;37;20939;-59
2021/04/18 01:07:31;;;;;;;;;31.25;30.75;;;;;;;;3724516;37;20948;-58
2021/04/18 01:09:58;;;;;;;;;31.25;30.25;;;;;;;;3724658;37;20949;-58
2021/04/18 01:12:24;;;;;;;;;30.00;30.00;;;;;;;;3724822;38;20917;-58
2021/04/18 01:14:50;;;;;;;;;32.50;31.00;;;;;;;;3724879;37;20939;-57
2021/04/18 01:17:16;;;;;;;;;35.00;32.75;;;;;;;;3724831;38;20904;-58
2021/04/18 01:19:42;;;;;;;;;35.75;33.75;;;;;;;;3724970;37;17896;-57
2021/04/18 01:22:07;;;;;;;;;31.25;29.25;;;;;;;;3724904;38;17805;-57
2021/04/18 01:24:34;;;;;;;;;35.00;33.75;;;;;;;;3725003;38;17830;-57
2021/04/18 01:26:59;;;;;;;;;29.50;27.50;;;;;;;;3724735;37;17805;-57
2021/04/18 01:29:25;;;;;;;;;29.25;27.75;;;;;;;;3724939;37;20888;-57
2021/04/18 01:31:52;;;;;;;;;37.00;34.25;;;;;;;;3725102;38;17805;-57
2021/04/18 01:34:19;;;;;;;;;33.25;32.50;;;;;;;;3724928;37;20886;-58
2021/04/18 01:36:45;;;;;;;;;33.25;32.00;;;;;;;;3724512;38;17799;-58
2021/04/18 01:39:11;;;;;;;;;32.75;28.50;;;;;;;;3724900;37;20890;-57
2021/04/18 01:41:37;;;;;;;;;28.25;27.00;;;;;;;;3724890;38;20870;-56
2021/04/18 01:44:11;;;;;;;;;36.00;34.00;;;;;;;;3724900;38;20864;-57
2021/04/18 01:46:37;;;;;;;;;27.00;26.50;;;;;;;;3724931;38;17780;-57
2021/04/18 01:49:03;;;;;;;;;30.00;28.75;;;;;;;;3724763;37;20860;-59
2021/04/18 01:51:34;;;;;;;;;31.75;27.75;;;;;;;;3724779;37;20871;-56
2021/04/18 01:54:00;;;;;;;;;35.25;32.00;;;;;;;;3724975;37;17768;-57
2021/04/18 01:56:27;;;;;;;;;32.75;30.00;;;;;;;;3724990;37;20862;-57
2021/04/18 01:58:53;;;;;;;;;28.50;28.50;;;;;;;;3724629;37;20866;-56
2021/04/18 02:01:21;;;;;;;;;32.00;28.25;;;;;;;;3724861;37;20865;-56
2021/04/18 02:03:47;;;;;;;;;28.50;27.75;;;;;;;;3724969;37;20540;-56
2021/04/18 02:06:14;;;;;;;;;29.50;29.00;;;;;;;;3724943;38;20809;-56
2021/04/18 02:08:39;;;;;;;;;29.00;28.25;;;;;;;;3724853;38;20868;-56
2021/04/18 02:11:05;;;;;;;;;29.75;28.75;;;;;;;;3724934;37;20864;-57
2021/04/18 02:13:31;;;;;;;;;30.50;29.25;;;;;;;;3724988;37;17763;-56
2021/04/18 02:15:57;;;;;;;;;30.25;28.75;;;;;;;;3724832;37;17765;-56
2021/04/18 02:18:25;;;;;;;;;30.25;28.75;;;;;;;;3724666;37;17724;-56
2021/04/18 02:20:51;;;;;;;;;28.25;28.25;;;;;;;;3724782;37;20849;-56
2021/04/18 02:23:17;;;;;;;;;26.00;21.75;;;;;;;;3724726;37;20827;-57
2021/04/18 02:25:43;;;;;;;;;30.75;28.00;;;;;;;;3724952;38;20838;-57
2021/04/18 02:28:09;;;;;;;;;35.00;33.75;;;;;;;;3724919;38;17716;-56
2021/04/18 02:30:36;;;;;;;;;32.00;32.00;;;;;;;;3725017;37;17732;-57
2021/04/18 02:33:02;;;;;;;;;30.50;28.00;;;;;;;;3724608;37;17710;-57
2021/04/18 02:35:28;;;;;;;;;31.50;30.00;;;;;;;;3724766;38;20599;-57
2021/04/18 02:37:53;;;;;;;;;31.00;30.00;;;;;;;;3724933;38;17996;-59
2021/04/18 02:40:20;;;;;;;;;34.00;33.25;;;;;;;;3724944;38;17750;-57
2021/04/18 02:42:46;;;;;;;;;39.75;35.75;;;;;;;;3724633;38;17710;-58
2021/04/18 02:45:13;;;;;;;;;29.50;28.00;;;;;;;;3724900;37;20811;-58
2021/04/18 02:47:39;;;;;;;;;33.50;32.75;;;;;;;;3724800;38;20813;-58
2021/04/18 02:50:06;;;;;;;;;31.25;28.75;;;;;;;;3724968;37;20789;-58
2021/04/18 02:52:34;;;;;;;;;32.00;31.00;;;;;;;;3725052;37;17704;-58
2021/04/18 02:55:00;;;;;;;;;37.00;34.25;;;;;;;;3724820;38;20809;-58
2021/04/18 02:57:26;;;;;;;;;36.50;33.50;;;;;;;;3724881;37;20795;-56
2021/04/18 02:59:51;;;;;;;;;31.00;31.00;;;;;;;;3724850;37;20822;-56
2021/04/18 03:02:17;;;;;;;;;34.25;30.25;;;;;;;;3724884;37;18662;-57
2021/04/18 03:04:43;;;;;;;;;34.50;33.50;;;;;;;;3725087;37;17686;-59
2021/04/18 03:07:08;;;;;;;;;33.00;33.00;;;;;;;;3725120;38;17672;-57
2021/04/18 03:09:34;;;;;;;;;37.50;33.75;;;;;;;;3725204;38;17687;-56
2021/04/18 03:12:01;;;;;;;;;37.25;34.25;;;;;;;;3724981;38;20786;-57
2021/04/18 03:14:27;;;;;;;;;39.75;34.75;;;;;;;;3725063;38;17689;-57
2021/04/18 03:16:53;;;;;;;;;31.75;30.50;;;;;;;;3724832;37;20746;-57
2021/04/18 03:19:19;;;;;;;;;36.50;33.25;;;;;;;;3724839;37;17661;-57
2021/04/18 03:21:44;;;;;;;;;25.75;25.25;;;;;;;;3724876;37;17657;-58
2021/04/18 03:24:10;;;;;;;;;28.25;25.50;;;;;;;;3724983;37;17666;-57
2021/04/18 03:26:36;;;;;;;;;38.00;34.25;;;;;;;;3725169;38;18640;-57
2021/04/18 03:29:02;;;;;;;;;37.25;35.75;;;;;;;;3724997;37;17661;-57
2021/04/18 03:31:28;;;;;;;;;38.25;34.00;;;;;;;;3724673;38;18645;-57
2021/04/18 03:33:53;;;;;;;;;38.50;34.25;;;;;;;;3725066;38;18753;-57
2021/04/18 03:36:20;;;;;;;;;41.25;36.25;;;;;;;;3724967;37;18657;-56
2021/04/18 03:38:45;;;;;;;;;37.50;34.75;;;;;;;;3724584;38;18736;-57
2021/04/18 03:41:14;;;;;;;;;40.25;37.25;;;;;;;;3724788;38;21842;-58
2021/04/18 03:43:40;;;;;;;;;37.50;35.00;;;;;;;;3724896;37;21904;-57
2021/04/18 03:46:06;;;;;;;;;39.25;34.50;;;;;;;;3724953;38;21731;-58
2021/04/18 03:48:32;;;;;;;;;35.25;34.00;;;;;;;;3724971;38;18624;-57
2021/04/18 03:50:57;;;;;;;;;34.75;34.50;;;;;;;;3724934;37;18644;-57
2021/04/18 03:53:23;;;;;;;;;41.50;37.75;;;;;;;;3724899;37;18632;-56
2021/04/18 03:55:49;;;;;;;;;36.75;35.00;;;;;;;;3724965;38;18613;-57
2021/04/18 03:58:15;;;;;;;;;35.25;33.75;;;;;;;;3724905;37;18611;-57
2021/04/18 04:00:40;;;;;;;;;38.25;34.75;;;;;;;;3724818;37;18615;-57
2021/04/18 04:03:06;;;;;;;;;34.25;29.00;;;;;;;;3725118;38;18630;-57
2021/04/18 04:05:32;;;;;;;;;39.00;34.50;;;;;;;;3724988;37;18606;-57
2021/04/18 04:07:58;;;;;;;;;44.00;38.00;;;;;;;;3724862;37;18611;-57
2021/04/18 04:10:28;;;;;;;;;32.25;32.25;;;;;;;;3725147;38;18620;-57
2021/04/18 04:12:54;;;;;;;;;36.50;35.00;;;;;;;;3724949;37;18614;-56
2021/04/18 04:15:20;;;;;;;;;27.75;26.00;;;;;;;;3725143;37;21775;-57
2021/04/18 04:17:45;;;;;;;;;38.25;33.50;;;;;;;;3725019;38;18588;-58
2021/04/18 04:20:12;;;;;;;;;37.00;34.75;;;;;;;;3724995;38;18575;-59
2021/04/18 04:22:37;;;;;;;;;38.75;35.25;;;;;;;;3725069;38;18593;-57
2021/04/18 04:25:04;;;;;;;;;30.25;30.25;;;;;;;;3725092;37;21781;-57
2021/04/18 04:27:29;;;;;;;;;38.25;34.25;;;;;;;;3724519;37;18578;-57
2021/04/18 04:29:55;;;;;;;;;41.25;37.00;;;;;;;;3724887;37;21763;-57
2021/04/18 04:32:21;;;;;;;;;38.50;34.25;;;;;;;;3724810;37;18589;-57
2021/04/18 04:34:46;;;;;;;;;39.00;34.25;;;;;;;;3724912;37;18564;-57
2021/04/18 04:37:13;;;;;;;;;45.75;37.50;;;;;;;;3725022;37;18581;-58
2021/04/18 04:39:45;;;;;;;;;37.00;34.75;;;;;;;;3724845;38;21765;-56
2021/04/18 04:42:11;;;;;;;;;32.00;30.50;;;;;;;;3724844;37;18561;-58
2021/04/18 04:44:37;;;;;;;;;33.75;33.75;;;;;;;;3724963;37;21625;-58
2021/04/18 04:47:02;;;;;;;;;38.25;35.75;;;;;;;;3724956;38;21826;-57
2021/04/18 04:49:28;;;;;;;;;37.50;34.75;;;;;;;;3724944;38;18565;-58
2021/04/18 04:51:54;;;;;;;;;40.00;36.75;;;;;;;;3724995;37;18540;-57
2021/04/18 04:54:19;;;;;;;;;38.25;35.25;;;;;;;;3724857;37;18550;-57
2021/04/18 04:56:45;;;;;;;;;39.25;36.75;;;;;;;;3724973;37;18534;-58
2021/04/18 04:59:11;;;;;;;;;39.00;36.00;;;;;;;;3724875;37;18529;-59
2021/04/18 05:01:37;;;;;;;;;37.75;35.25;;;;;;;;3725091;38;18774;-60
2021/04/18 05:04:03;;;;;;;;;41.00;34.50;;;;;;;;3725093;37;18539;-61
2021/04/18 05:06:29;;;;;;;;;35.75;32.75;;;;;;;;3725021;37;18514;-61
2021/04/18 05:08:54;;;;;;;;;37.00;36.00;;;;;;;;3724996;37;21569;-59
2021/04/18 05:11:20;;;;;;;;;35.00;33.75;;;;;;;;3725208;38;18519;-59
2021/04/18 05:13:46;;;;;;;;;34.75;34.00;;;;;;;;3725257;37;18519;-61
2021/04/18 05:16:12;;;;;;;;;36.25;34.75;;;;;;;;3725173;37;18525;-62
2021/04/18 05:18:39;;;;;;;;;43.75;36.50;;;;;;;;3725093;37;18503;-61
2021/04/18 05:21:06;;;;;;;;;42.50;34.50;;;;;;;;3725026;38;18490;-61
2021/04/18 05:23:31;;;;;;;;;25.50;23.00;;;;;;;;3724569;38;21552;-62
2021/04/18 05:25:57;;;;;;;;;38.25;33.50;;;;;;;;3725111;38;21570;-60
2021/04/18 05:28:23;;;;;;;;;34.50;31.75;;;;;;;;3725139;38;18501;-59
2021/04/18 05:30:48;;;;;;;;;36.75;34.00;;;;;;;;3725179;37;18481;-62
2021/04/18 05:33:15;;;;;;;;;34.75;33.00;;;;;;;;3725006;38;18467;-61
2021/04/18 05:35:41;;;;;;;;;32.00;31.00;;;;;;;;3724640;38;18503;-62
2021/04/18 05:38:06;;;;;;;;;36.00;33.50;;;;;;;;3724966;38;21529;-59
2021/04/18 05:40:33;;;;;;;;;32.50;31.75;;;;;;;;3725106;37;18472;-61
2021/04/18 05:43:01;;;;;;;;;32.50;29.50;;;;;;;;3725262;37;18454;-61
2021/04/18 05:45:28;;;;;;;;;33.00;31.50;;;;;;;;3724981;38;21525;-60
2021/04/18 05:47:54;;;;;;;;;33.50;32.50;;;;;;;;3724997;37;18446;-61
2021/04/18 05:50:22;;;;;;;;;35.75;32.50;;;;;;;;3724908;37;21524;-62
2021/04/18 05:52:48;;;;;;;;;33.50;32.25;;;;;;;;3724822;38;21758;-62
2021/04/18 05:55:14;;;;;;;;;33.00;32.00;;;;;;;;3724963;38;21515;-59
2021/04/18 05:57:40;;;;;;;;;35.50;34.00;;;;;;;;3724946;38;18462;-61
2021/04/18 06:00:06;;;;;;;;;32.75;28.50;;;;;;;;3725010;38;21533;-61
2021/04/18 06:02:33;;;;;;;;;28.50;27.75;;;;;;;;3725181;38;18440;-62
2021/04/18 06:04:58;;;;;;;;;33.50;31.00;;;;;;;;3724639;38;21533;-61
2021/04/18 06:07:24;;;;;;;;;34.75;32.50;;;;;;;;3724964;37;21496;-59
2021/04/18 06:09:51;;;;;;;;;35.25;33.00;;;;;;;;3725089;37;18428;-60
2021/04/18 06:12:16;;;;;;;;;32.25;31.75;;;;;;;;3724988;37;18442;-59
2021/04/18 06:14:42;;;;;;;;;32.00;32.00;;;;;;;;3724964;37;21489;-60
2021/04/18 06:17:08;;;;;;;;;33.50;31.75;;;;;;;;3724983;37;18419;-59
2021/04/18 06:19:34;;;;;;;;;33.25;30.50;;;;;;;;3725189;38;18365;-60
2021/04/18 06:22:00;;;;;;;;;28.00;25.75;;;;;;;;3724999;38;18420;-60
2021/04/18 06:24:26;;;;;;;;;44.75;38.50;;;;;;;;3725178;37;18406;-61
2021/04/18 06:26:52;;;;;;;;;43.25;35.00;;;;;;;;3725038;37;18396;-60
2021/04/18 06:29:17;;;;;;;;;34.75;31.25;;;;;;;;3724787;38;18424;-61
2021/04/18 06:31:44;;;;;;;;;26.75;25.50;;;;;;;;3725065;37;18404;-63
2021/04/18 06:34:10;;;;;;;;;27.25;27.25;;;;;;;;3724746;37;18425;-60
2021/04/18 06:36:35;;;;;;;;;35.00;29.25;;;;;;;;3724653;37;21363;-59
2021/04/18 06:39:01;;;;;;;;;25.00;24.25;;;;;;;;3724500;38;21542;-59
2021/04/18 06:41:29;;;;;;;;;30.75;28.25;;;;;;;;3724301;38;18404;-60
2021/04/18 06:43:55;;;;;;;;;27.00;26.00;;;;;;;;3724465;37;18415;-59
2021/04/18 06:46:21;;;;;;;;;28.25;26.75;;;;;;;;3724123;38;21439;-59
2021/04/18 06:48:49;;;;;;;;;26.75;24.00;;;;;;;;3724419;38;18391;-64
2021/04/18 06:51:19;;;;;;;;;33.75;30.50;;;;;;;;3724308;38;21440;-63
2021/04/18 06:53:46;;;;;;;;;30.75;28.25;;;;;;;;3724610;37;21443;-60
2021/04/18 06:56:12;;;;;;;;;24.75;24.00;;;;;;;;3723856;37;21411;-58
2021/04/18 06:58:43;;;;;;;;;33.50;29.75;;;;;;;;3724335;38;21419;-59
2021/04/18 07:01:08;;;;;;;;;25.75;24.75;;;;;;;;3724530;37;18368;-62
2021/04/18 07:03:35;;;;;;;;;26.00;25.00;;;;;;;;3724256;38;21410;-59
2021/04/18 07:06:02;;;;;;;;;22.50;20.25;;;;;;;;3724012;37;18370;-61
2021/04/18 07:08:28;;;;;;;;;18.50;18.50;;;;;;;;3724318;37;21428;-60
2021/04/18 07:11:14;;;;;;;;;22.50;19.75;;;;;;;;3724818;38;21408;-61
2021/04/18 07:13:43;;;;;;;;;21.00;20.75;;;;;;;;3724996;37;21345;-59
2021/04/18 07:16:27;;;;;;;;;38.75;33.25;;;;;;;;3724866;37;21376;-60
2021/04/18 07:18:54;;;;;;;;;18.50;15.25;;;;;;;;3724470;37;21386;-61
2021/04/18 07:21:22;;;;;;;;;20.25;18.50;;;;;;;;3724230;37;21298;-62
2021/04/18 07:23:49;;;;;;;;;33.50;31.75;;;;;;;;3724653;37;21397;-61
2021/04/18 07:26:19;;;;;;;;;18.00;18.00;;;;;;;;3723987;37;21398;-61
2021/04/18 07:28:45;;;;;;;;;20.75;20.00;;;;;;;;3724551;38;21372;-61
2021/04/18 07:31:11;;;;;;;;;15.25;14.00;;;;;;;;3724595;38;21384;-59
2021/04/18 07:33:55;;;;;;;;;16.00;14.75;;;;;;;;3724993;37;18301;-63
2021/04/18 07:36:21;;;;;;;;;15.00;14.00;;;;;;;;3724410;37;21351;-60
2021/04/18 07:38:50;;;;;;;;;17.25;17.00;;;;;;;;3724340;38;21407;-61
2021/04/18 07:41:20;;;;;;;;;16.00;16.00;;;;;;;;3724466;37;18308;-59
2021/04/18 07:43:47;;;;;;;;;17.00;17.00;;;;;;;;3724635;37;21361;-58
2021/04/18 07:46:13;;;;;;;;;17.00;16.50;;;;;;;;3724644;37;21349;-59
2021/04/18 07:48:39;;;;;;;;;18.25;17.50;;;;;;;;3724574;38;21368;-59
2021/04/18 07:51:05;;;;;;;;;17.50;16.75;;;;;;;;3724578;38;21343;-58
2021/04/18 07:53:31;;;;;;;;;15.00;13.00;;;;;;;;3724104;37;18289;-58
2021/04/18 07:55:57;;;;;;;;;14.50;13.00;;;;;;;;3724425;38;21374;-58
2021/04/18 07:58:25;;;;;;;;;13.25;12.75;;;;;;;;3724255;37;21451;-59
2021/04/18 08:00:52;;;;;;;;;15.75;13.00;;;;;;;;3724430;37;18289;-64
2021/04/18 08:03:18;;;;;;;;;15.75;15.00;;;;;;;;3724637;38;21347;-64
2021/04/18 08:05:45;;;;;;;;;21.75;19.75;;;;;;;;3725195;37;21360;-61
2021/04/18 08:08:14;;;;;;;;;13.75;13.50;;;;;;;;3725342;37;21315;-61
2021/04/18 08:10:42;;;;;;;;;16.25;14.00;;;;;;;;3725099;38;21357;-61
2021/04/18 08:13:15;;;;;;;;;12.75;12.75;;;;;;;;3724825;38;21347;-59
2021/04/18 08:15:42;;;;;;;;;15.00;15.00;;;;;;;;3724295;37;21350;-60
2021/04/18 08:18:13;;;;;;;;;16.50;13.00;;;;;;;;3724970;37;21334;-66
2021/04/18 08:20:45;;;;;;;;;14.25;13.50;;;;;;;;3724762;37;21327;-60
2021/04/18 08:23:16;;;;;;;;;20.50;18.25;;;;;;;;3724911;38;21307;-61
2021/04/18 08:26:02;;;;;;;;;15.00;14.75;;;;;;;;3724562;37;21309;-62
2021/04/18 08:28:28;;;;;;;;;15.75;15.75;;;;;;;;3724615;38;21322;-60
2021/04/18 08:31:07;;;;;;;;;14.50;14.50;;;;;;;;3724524;38;21429;-61
2021/04/18 08:33:43;;;;;;;;;17.75;17.00;;;;;;;;3724786;37;21341;-61
2021/04/18 08:36:28;;;;;;;;;18.00;16.50;;;;;;;;3724655;37;21304;-61
2021/04/18 08:39:20;;;;;;;;;16.00;16.00;;;;;;;;3724585;37;21366;-60
2021/04/18 08:41:50;;;;;;;;;13.75;13.00;;;;;;;;3725078;37;21338;-60
2021/04/18 08:44:27;;;;;;;;;13.50;13.50;;;;;;;;3725042;37;21301;-58
2021/04/18 08:46:55;;;;;;;;;16.50;15.00;;;;;;;;3724868;37;21332;-61
2021/04/18 08:49:28;;;;;;;;;16.00;14.00;;;;;;;;3725147;37;21309;-60
2021/04/18 08:51:54;;;;;;;;;18.25;17.00;;;;;;;;3725292;38;21309;-60
2021/04/18 08:54:42;;;;;;;;;15.50;15.50;;;;;;;;3725090;37;21261;-59
2021/04/18 08:57:12;;;;;;;;;15.00;15.00;;;;;;;;3725246;38;21306;-59
2021/04/18 08:59:38;;;;;;;;;15.75;13.25;;;;;;;;3725403;38;21297;-60
2021/04/18 09:02:17;;;;;;;;;15.00;15.00;;;;;;;;3725395;38;21283;-60
2021/04/18 09:04:45;;;;;;;;;14.00;13.25;;;;;;;;3724964;37;21298;-57
2021/04/18 09:07:12;;;;;;;;;12.75;11.75;;;;;;;;3724839;37;21249;-59
2021/04/18 09:09:38;;;;;;;;;11.50;11.25;;;;;;;;3725043;37;21221;-59
2021/04/18 09:12:04;;;;;;;;;11.50;11.50;;;;;;;;3724702;37;21259;-59
2021/04/18 09:14:32;;;;;;;;;12.00;12.00;;;;;;;;3724836;37;21333;-58
2021/04/18 09:17:14;;;;;;;;;9.25;9.25;;;;;;;;3724535;37;21220;-61
2021/04/18 09:19:42;;;;;;;;;13.00;12.50;;;;;;;;3725035;37;21218;-58
2021/04/18 09:22:13;;;;;;;;;8.75;8.75;;;;;;;;3725070;37;21256;-58
2021/04/18 09:25:00;;;;;;;;;10.25;10.25;;;;;;;;3725101;37;21142;-58
2021/04/18 09:27:46;;;;;;;;;9.75;9.75;;;;;;;;3724841;37;21257;-59
2021/04/18 09:30:20;;;;;;;;;9.50;9.50;;;;;;;;3725013;38;21122;-60
2021/04/18 09:32:50;;;;;;;;;11.75;11.50;;;;;;;;3724837;37;21210;-59
2021/04/18 09:35:17;;;;;;;;;10.00;10.00;;;;;;;;3724298;37;21188;-59
2021/04/18 09:37:44;;;;;;;;;10.25;10.25;;;;;;;;3724246;38;21146;-58
2021/04/18 09:40:12;;;;;;;;;6.00;6.00;;;;;;;;3724443;38;21176;-59
2021/04/18 09:42:43;;;;;;;;;9.25;8.75;;;;;;;;3724775;38;20962;-59
2021/04/18 09:45:12;;;;;;;;;6.50;6.50;;;;;;;;3724931;38;21100;-59
2021/04/18 09:47:39;;;;;;;;;8.00;7.25;;;;;;;;3724882;38;21115;-57
2021/04/18 09:50:22;;;;;;;;;8.25;8.25;;;;;;;;3724892;38;21086;-58
2021/04/18 09:52:49;;;;;;;;;9.25;9.00;;;;;;;;3724595;37;21077;-58
2021/04/18 09:55:40;;;;;;;;;11.25;9.25;;;;;;;;3724659;38;21128;-58
2021/04/18 09:58:06;;;;;;;;;7.00;7.00;;;;;;;;3724584;37;21084;-58
2021/04/18 10:00:36;;;;;;;;;6.25;6.25;;;;;;;;3724431;37;21117;-59
2021/04/18 10:03:13;;;;;;;;;10.25;9.75;;;;;;;;3724632;38;18127;-58
2021/04/18 10:05:56;;;;;;;;;5.00;5.00;;;;;;;;3724982;37;21147;-58
2021/04/18 10:08:23;;;;;;;;;6.25;6.00;;;;;;;;3724446;37;21074;-59
2021/04/18 10:11:15;;;;;;;;;5.50;5.50;;;;;;;;3725160;38;21108;-58
2021/04/18 10:13:53;;;;;;;;;6.00;6.00;;;;;;;;3724547;38;21279;-59
2021/04/18 10:16:21;;;;;;;;;3.25;3.25;;;;;;;;3724474;37;21096;-58
2021/04/18 10:19:05;;;;;;;;;6.25;6.25;;;;;;;;3724733;37;21121;-58
2021/04/18 10:21:31;;;;;;;;;6.00;6.00;;;;;;;;3725025;38;21133;-58
2021/04/18 10:23:56;;;;;;;;;8.00;6.50;;;;;;;;3724842;38;21258;-59
2021/04/18 10:26:23;;;;;;;;;5.50;5.50;;;;;;;;3724800;37;21365;-59
2021/04/18 10:28:50;;;;;;;;;5.50;5.50;;;;;;;;3725102;38;18086;-58
2021/04/18 10:31:18;;;;;;;;;5.25;5.25;;;;;;;;3724916;37;21072;-57
2021/04/18 10:33:44;;;;;;;;;6.00;6.00;;;;;;;;3724665;38;21062;-57
2021/04/18 10:36:11;;;;;;;;;6.75;6.25;;;;;;;;3724896;37;21047;-60
2021/04/18 10:38:37;;;;;;;;;5.50;5.50;;;;;;;;3724723;38;21052;-58
2021/04/18 10:41:03;;;;;;;;;7.00;7.00;;;;;;;;3724548;37;21216;-58
2021/04/18 10:43:31;;;;;;;;;6.75;6.75;;;;;;;;3725011;38;21028;-58
2021/04/18 10:45:56;;;;;;;;;6.75;6.75;;;;;;;;3724939;37;21228;-58
2021/04/18 10:48:22;;;;;;;;;6.50;6.50;;;;;;;;3724871;38;21060;-58
2021/04/18 10:50:48;;;;;;;;;7.00;7.00;;;;;;;;3724966;37;18062;-58
2021/04/18 10:53:14;;;;;;;;;8.00;7.00;;;;;;;;3725114;37;18069;-58
2021/04/18 10:55:40;;;;;;;;;6.50;6.00;;;;;;;;3725123;38;18064;-58
2021/04/18 10:58:06;;;;;;;;;7.50;7.50;;;;;;;;3724920;37;18058;-59
2021/04/18 11:00:32;;;;;;;;;6.00;6.00;;;;;;;;3724984;37;20987;-61
2021/04/18 11:02:58;;;;;;;;;7.00;7.00;;;;;;;;3724913;37;18048;-59
2021/04/18 11:05:24;;;;;;;;;8.00;8.00;;;;;;;;3724889;38;20989;-59
2021/04/18 11:07:50;;;;;;;;;6.75;6.75;;;;;;;;3724931;37;18051;-58
2021/04/18 11:10:16;;;;;;;;;7.50;7.25;;;;;;;;3725070;38;18055;-59
2021/04/18 11:12:42;;;;;;;;;7.00;7.00;;;;;;;;3725033;38;18043;-59
2021/04/18 11:15:14;;;;;;;;;7.75;7.75;;;;;;;;3724954;38;20971;-58
2021/04/18 11:17:40;;;;;;;;;8.75;8.25;;;;;;;;3724972;37;20966;-58
2021/04/18 11:20:10;;;;;;;;;8.00;8.00;;;;;;;;3724860;38;21009;-61
2021/04/18 11:22:39;;;;;;;;;7.50;7.25;;;;;;;;3725067;38;21049;-59
2021/04/18 11:25:11;;;;;;;;;7.75;7.50;;;;;;;;3724879;38;20978;-59
2021/04/18 11:27:38;;;;;;;;;8.75;8.75;;;;;;;;3724781;38;20972;-59
2021/04/18 11:30:11;;;;;;;;;11.25;10.00;;;;;;;;3724960;37;20978;-61
2021/04/18 11:32:37;;;;;;;;;8.75;8.00;;;;;;;;3725042;38;20995;-60
2021/04/18 11:35:07;;;;;;;;;7.25;7.25;;;;;;;;3724905;37;20944;-59
2021/04/18 11:37:33;;;;;;;;;9.00;9.00;;;;;;;;3724894;37;20920;-59
2021/04/18 11:39:59;;;;;;;;;8.50;8.50;;;;;;;;3725135;38;20951;-58
2021/04/18 11:42:25;;;;;;;;;8.00;8.00;;;;;;;;3725209;38;20987;-59
2021/04/18 11:44:51;;;;;;;;;9.75;9.00;;;;;;;;3725071;37;20928;-60
2021/04/18 11:47:18;;;;;;;;;9.00;9.00;;;;;;;;3724576;37;20892;-59
2021/04/18 11:49:45;;;;;;;;;8.75;8.25;;;;;;;;3725094;38;17981;-60
2021/04/18 11:52:13;;;;;;;;;7.00;7.00;;;;;;;;3724340;37;20948;-60
2021/04/18 11:54:39;;;;;;;;;9.00;8.00;;;;;;;;3724930;37;20939;-59
2021/04/18 11:57:05;;;;;;;;;6.75;4.75;;;;;;;;3725183;38;20961;-60
2021/04/18 11:59:31;;;;;;;;;9.00;9.00;;;;;;;;3725834;37;17968;-59
2021/04/18 12:01:57;;;;;;;;;9.25;7.75;;;;;;;;3725457;37;20931;-59
2021/04/18 12:04:23;;;;;;;;;9.00;8.50;;;;;;;;3725605;38;17947;-59
2021/04/18 12:06:48;;;;;;;;;14.00;12.25;;;;;;;;3726159;37;20896;-60
2021/04/18 12:09:20;;;;;;;;;5.25;5.25;;;;;;;;3726268;37;17941;-60
2021/04/18 12:11:46;;;;;;;;;11.25;9.25;;;;;;;;3726087;38;18045;-59
2021/04/18 12:14:12;;;;;;;;;10.50;8.75;;;;;;;;3725097;37;20928;-59
2021/04/18 12:16:38;;;;;;;;;5.75;5.75;;;;;;;;3725064;38;17953;-58
2021/04/18 12:19:03;;;;;;;;;6.75;6.75;;;;;;;;3725160;38;17965;-60
2021/04/18 12:21:30;;;;;;;;;5.50;5.50;;;;;;;;3725245;38;17964;-60
2021/04/18 12:23:56;;;;;;;;;10.25;8.00;;;;;;;;3724928;38;17928;-62
2021/04/18 12:26:22;;;;;;;;;8.25;8.25;;;;;;;;3725095;37;20941;-59
2021/04/18 12:28:48;;;;;;;;;9.25;8.75;;;;;;;;3724749;37;20904;-60
2021/04/18 12:31:17;;;;;;;;;10.25;9.00;;;;;;;;3724869;38;20905;-59
2021/04/18 12:33:43;;;;;;;;;9.25;9.25;;;;;;;;3724711;37;20884;-59
2021/04/18 12:36:09;;;;;;;;;11.00;9.75;;;;;;;;3724506;38;20868;-59
2021/04/18 12:38:36;;;;;;;;;10.00;8.25;;;;;;;;3724755;37;20916;-61
2021/04/18 12:41:02;;;;;;;;;8.00;8.00;;;;;;;;3725040;37;17902;-59
2021/04/18 12:43:33;;;;;;;;;9.25;9.25;;;;;;;;3725045;37;20862;-60
2021/04/18 12:46:01;;;;;;;;;8.25;7.25;;;;;;;;3725101;38;17896;-60
2021/04/18 12:48:27;;;;;;;;;7.75;7.75;;;;;;;;3724844;37;20860;-59
2021/04/18 12:50:53;;;;;;;;;7.75;7.50;;;;;;;;3725067;38;20825;-59
2021/04/18 12:53:18;;;;;;;;;5.75;5.75;;;;;;;;3725149;38;17917;-59
2021/04/18 12:55:44;;;;;;;;;9.50;9.00;;;;;;;;3724912;37;20865;-62
2021/04/18 12:58:16;;;;;;;;;7.00;7.00;;;;;;;;3724883;38;17817;-59
2021/04/18 13:00:42;;;;;;;;;8.25;8.25;;;;;;;;3725171;37;17899;-60
2021/04/18 13:03:08;;;;;;;;;11.00;10.25;;;;;;;;3724774;38;20858;-60
2021/04/18 13:05:34;;;;;;;;;12.00;12.00;;;;;;;;3724868;38;17880;-64
2021/04/18 13:08:06;;;;;;;;;10.25;9.25;;;;;;;;3724974;38;17876;-59
2021/04/18 13:10:31;;;;;;;;;11.75;11.75;;;;;;;;3725129;38;17879;-60
2021/04/18 13:12:57;;;;;;;;;13.00;12.00;;;;;;;;3725215;38;20956;-59
2021/04/18 13:15:23;;;;;;;;;13.50;13.00;;;;;;;;3724913;38;17868;-59
2021/04/18 13:17:49;;;;;;;;;11.50;11.50;;;;;;;;3724905;37;17874;-59
2021/04/18 13:20:15;;;;;;;;;13.00;13.00;;;;;;;;3724954;38;17855;-60
2021/04/18 13:22:41;;;;;;;;;13.00;13.00;;;;;;;;3724898;37;20960;-58
2021/04/18 13:25:09;;;;;;;;;11.00;11.00;;;;;;;;3724992;37;20922;-61
2021/04/18 13:27:34;;;;;;;;;14.75;14.75;;;;;;;;3724742;37;20925;-60
2021/04/18 13:30:00;;;;;;;;;13.25;11.00;;;;;;;;3725211;38;20420;-61
2021/04/18 13:32:26;;;;;;;;;11.25;10.25;;;;;;;;3725361;38;17839;-58
2021/04/18 13:34:52;;;;;;;;;11.75;11.00;;;;;;;;3724976;38;20905;-59
2021/04/18 13:37:18;;;;;;;;;12.50;11.50;;;;;;;;3724932;38;17840;-57
2021/04/18 13:39:43;;;;;;;;;9.25;9.00;;;;;;;;3724808;38;17845;-58
2021/04/18 13:42:10;;;;;;;;;11.00;9.00;;;;;;;;3724904;38;17829;-57
2021/04/18 13:44:37;;;;;;;;;10.50;10.00;;;;;;;;3725008;37;17817;-60
2021/04/18 13:47:02;;;;;;;;;10.00;10.00;;;;;;;;3724640;38;20515;-58
2021/04/18 13:49:28;;;;;;;;;9.00;9.00;;;;;;;;3725018;38;20805;-62
2021/04/18 13:51:54;;;;;;;;;9.25;9.25;;;;;;;;3725160;37;17825;-59
2021/04/18 13:54:20;;;;;;;;;10.00;10.00;;;;;;;;3725125;38;20818;-56
2021/04/18 13:56:46;;;;;;;;;10.75;10.00;;;;;;;;3724676;38;17835;-57
2021/04/18 13:59:12;;;;;;;;;11.00;11.00;;;;;;;;3724222;37;20927;-57
2021/04/18 14:01:39;;;;;;;;;9.75;9.00;;;;;;;;3724540;38;20841;-57
2021/04/18 14:04:05;;;;;;;;;11.25;11.00;;;;;;;;3724221;37;20845;-57
2021/04/18 14:06:31;;;;;;;;;7.50;7.50;;;;;;;;3724708;38;17794;-58
2021/04/18 14:08:56;;;;;;;;;11.75;11.25;;;;;;;;3724743;37;20826;-58
2021/04/18 14:11:23;;;;;;;;;11.75;11.00;;;;;;;;3724838;37;17796;-57
2021/04/18 14:13:48;;;;;;;;;11.50;11.50;;;;;;;;3724678;38;17808;-56
2021/04/18 14:16:14;;;;;;;;;9.50;9.50;;;;;;;;3724628;38;20914;-57
2021/04/18 14:18:40;;;;;;;;;11.50;11.50;;;;;;;;3724917;37;17804;-57
2021/04/18 14:21:06;;;;;;;;;10.25;10.25;;;;;;;;3724752;37;17774;-58
2021/04/18 14:23:35;;;;;;;;;9.00;9.00;;;;;;;;3724839;38;20827;-57
2021/04/18 14:26:01;;;;;;;;;17.00;15.50;;;;;;;;3724702;38;17783;-58